Time;durP1;ratioP1;P1;durP2;ratioP2;P2;SDS_P1;SDS_P2;PMS_P1;PMS_P2;Temp;Humidity;BMP_temperature;BMP_pressure;BME280_temperature;BME280_humidity;BME280_pressure;Samples;Min_cycle;Max_cycle;Signal;HPM_P1;HPM_P2
2022/10/11 00:02:32;;;;;;;;;10.50;9.00;26.60;99.90;;;;;;5004849;28;8839;-74
2022/10/11 00:05:07;;;;;;;;;7.75;7.75;26.60;99.90;;;;;;4970202;28;8865;-73
2022/10/11 00:07:42;;;;;;;;;9.50;9.50;26.50;99.90;;;;;;4997288;28;8886;-72
2022/10/11 00:10:12;;;;;;;;;8.00;8.00;26.50;99.90;;;;;;5008530;28;8828;-73
2022/10/11 00:12:44;;;;;;;;;9.75;8.75;26.50;99.90;;;;;;5015534;28;8818;-73
2022/10/11 00:15:19;;;;;;;;;9.25;9.25;26.40;99.90;;;;;;5010571;28;8853;-73
2022/10/11 00:17:50;;;;;;;;;9.50;9.50;26.50;99.90;;;;;;4993412;28;8858;-72
2022/10/11 00:20:41;;;;;;;;;10.50;10.50;26.30;99.90;;;;;;4991795;28;8852;-81
2022/10/11 00:23:17;;;;;;;;;8.75;8.75;26.30;99.90;;;;;;5014132;28;8848;-74
2022/10/11 00:25:58;;;;;;;;;9.50;9.50;26.30;99.90;;;;;;4981271;28;8867;-72
2022/10/11 00:28:28;;;;;;;;;8.00;8.00;26.20;99.90;;;;;;4980189;28;8876;-72
2022/10/11 00:31:03;;;;;;;;;10.50;9.00;26.20;99.90;;;;;;4983390;28;8836;-73
2022/10/11 00:33:41;;;;;;;;;9.00;9.00;26.20;99.90;;;;;;4972190;28;8843;-73
2022/10/11 00:36:19;;;;;;;;;10.00;10.00;26.10;99.90;;;;;;4992229;28;8840;-72
2022/10/11 00:38:50;;;;;;;;;10.50;9.00;26.00;99.90;;;;;;4998782;28;8836;-72
2022/10/11 00:41:22;;;;;;;;;8.75;8.75;26.00;99.90;;;;;;4978634;28;8805;-71
2022/10/11 00:44:17;;;;;;;;;9.00;9.00;26.00;99.90;;;;;;4980385;28;8981;-72
2022/10/11 00:47:17;;;;;;;;;8.00;8.00;25.90;99.90;;;;;;4981922;28;8848;-72
2022/10/11 00:50:02;;;;;;;;;9.25;9.25;25.90;99.90;;;;;;5001365;28;8870;-71
2022/10/11 00:52:40;;;;;;;;;11.00;11.00;25.80;99.90;;;;;;5019041;28;8852;-72
2022/10/11 00:55:24;;;;;;;;;9.50;9.50;25.80;99.90;;;;;;5027928;28;8880;-74
2022/10/11 00:57:58;;;;;;;;;10.50;10.50;25.90;99.90;;;;;;5009704;28;8857;-73
2022/10/11 01:00:30;;;;;;;;;12.00;10.50;25.70;99.90;;;;;;5013210;28;8845;-73
2022/10/11 01:03:06;;;;;;;;;10.25;10.25;25.70;99.90;;;;;;4983267;28;8866;-72
2022/10/11 01:05:39;;;;;;;;;8.50;8.50;25.80;99.90;;;;;;4979728;28;8820;-72
2022/10/11 01:08:14;;;;;;;;;9.00;9.00;25.70;99.90;;;;;;5011282;28;8877;-72
2022/10/11 01:10:44;;;;;;;;;9.75;9.75;25.70;99.90;;;;;;4992438;28;8806;-71
2022/10/11 01:13:55;;;;;;;;;10.00;10.00;25.60;99.90;;;;;;4994497;28;8830;-71
2022/10/11 01:16:38;;;;;;;;;9.75;9.75;25.60;99.90;;;;;;5024838;28;8900;-73
2022/10/11 01:19:51;;;;;;;;;8.00;8.00;25.60;99.90;;;;;;5010703;28;8868;-71
2022/10/11 01:22:41;;;;;;;;;9.25;9.25;25.50;99.90;;;;;;5005026;28;8845;-71
2022/10/11 01:25:41;;;;;;;;;10.00;10.00;25.50;99.90;;;;;;5014860;28;8867;-72
2022/10/11 01:29:08;;;;;;;;;11.25;11.25;25.50;99.90;;;;;;4982151;28;8853;-71
2022/10/11 01:32:09;;;;;;;;;12.50;12.50;25.40;99.90;;;;;;4991410;28;8869;-72
2022/10/11 01:35:08;;;;;;;;;4.25;4.25;25.40;99.90;;;;;;5016711;28;8830;-74
2022/10/11 01:37:47;;;;;;;;;12.25;10.50;25.40;99.90;;;;;;5014651;28;8858;-73
2022/10/11 01:40:32;;;;;;;;;12.50;12.50;25.40;99.90;;;;;;5013109;28;8814;-72
2022/10/11 01:43:09;;;;;;;;;10.75;10.75;25.40;99.90;;;;;;5015474;28;8819;-74
2022/10/11 01:45:40;;;;;;;;;14.00;13.75;25.50;99.90;;;;;;5014449;28;8838;-71
2022/10/11 01:48:12;;;;;;;;;12.25;12.25;25.40;99.90;;;;;;5014357;28;9610;-72
2022/10/11 01:50:52;;;;;;;;;11.75;11.75;25.30;99.90;;;;;;4980500;28;9863;-72
2022/10/11 01:53:56;;;;;;;;;12.00;12.00;25.30;99.90;;;;;;4979187;28;10093;-72
2022/10/11 01:57:09;;;;;;;;;12.00;12.00;25.30;99.90;;;;;;4995965;28;9572;-72
2022/10/11 02:00:05;;;;;;;;;14.50;14.50;25.30;99.90;;;;;;4978752;28;8839;-72
2022/10/11 02:02:55;;;;;;;;;13.50;13.50;25.20;99.90;;;;;;4992038;28;8820;-73
2022/10/11 02:05:47;;;;;;;;;14.00;14.00;25.30;99.90;;;;;;4994481;28;8874;-73
2022/10/11 02:08:53;;;;;;;;;13.25;13.25;25.20;99.90;;;;;;4984389;28;8846;-73
2022/10/11 02:11:35;;;;;;;;;15.50;15.50;25.20;99.90;;;;;;4984747;28;8823;-72
2022/10/11 02:14:26;;;;;;;;;12.25;12.25;25.10;99.90;;;;;;4998387;28;8786;-76
2022/10/11 02:17:10;;;;;;;;;11.50;11.50;25.20;99.90;;;;;;4999057;28;8844;-75
2022/10/11 02:19:56;;;;;;;;;12.00;12.00;25.20;99.90;;;;;;5001750;28;8830;-72
2022/10/11 02:22:40;;;;;;;;;14.75;14.75;25.10;99.90;;;;;;4994954;28;8837;-71
2022/10/11 02:25:20;;;;;;;;;11.50;11.50;25.00;99.90;;;;;;4981011;28;8860;-72
2022/10/11 02:27:56;;;;;;;;;14.25;14.25;25.00;99.90;;;;;;5001285;28;8842;-71
2022/10/11 02:30:36;;;;;;;;;13.50;13.50;25.00;99.90;;;;;;4983660;28;8824;-73
2022/10/11 02:33:14;;;;;;;;;12.00;12.00;25.10;99.90;;;;;;4983911;28;8863;-72
2022/10/11 02:36:28;;;;;;;;;17.00;17.00;24.90;99.90;;;;;;4982456;28;8814;-72
2022/10/11 02:39:11;;;;;;;;;14.00;14.00;24.80;99.90;;;;;;5003002;28;8843;-73
2022/10/11 02:41:47;;;;;;;;;13.75;13.75;24.80;99.90;;;;;;4984110;28;8814;-71
2022/10/11 02:44:38;;;;;;;;;15.25;15.25;24.70;99.90;;;;;;5006069;28;9382;-73
2022/10/11 02:47:15;;;;;;;;;14.25;14.25;24.80;99.90;;;;;;5001858;28;8840;-72
2022/10/11 02:49:53;;;;;;;;;13.75;13.75;24.80;99.90;;;;;;5010405;28;8890;-74
2022/10/11 02:52:27;;;;;;;;;14.25;14.25;24.70;99.90;;;;;;5020502;28;9496;-74
2022/10/11 02:55:02;;;;;;;;;11.75;11.75;24.80;99.90;;;;;;5035709;28;9578;-71
2022/10/11 02:57:47;;;;;;;;;12.50;12.50;24.60;99.90;;;;;;4989710;28;8906;-70
2022/10/11 03:00:19;;;;;;;;;13.25;13.25;24.70;99.90;;;;;;5015926;28;8850;-71
2022/10/11 03:02:49;;;;;;;;;13.25;13.25;24.60;99.90;;;;;;5017532;28;8862;-73
2022/10/11 03:05:21;;;;;;;;;13.25;13.25;24.60;99.90;;;;;;4988775;28;8858;-70
2022/10/11 03:07:55;;;;;;;;;13.50;12.00;24.60;99.90;;;;;;5004745;28;8871;-71
2022/10/11 03:10:28;;;;;;;;;11.25;11.25;24.60;99.90;;;;;;5001475;28;8852;-69
2022/10/11 03:13:03;;;;;;;;;13.25;13.25;24.60;99.90;;;;;;5005641;28;8834;-70
2022/10/11 03:15:36;;;;;;;;;9.25;9.25;24.60;99.90;;;;;;4989560;28;8838;-73
2022/10/11 03:18:13;;;;;;;;;12.25;12.00;24.50;99.90;;;;;;5003890;28;8869;-70
2022/10/11 03:20:48;;;;;;;;;14.00;13.00;24.50;99.90;;;;;;5020080;28;8980;-70
2022/10/11 03:23:19;;;;;;;;;12.50;12.50;24.40;99.90;;;;;;5005747;28;8948;-72
2022/10/11 03:25:50;;;;;;;;;10.50;10.25;24.40;99.90;;;;;;5002940;28;8850;-70
2022/10/11 03:28:21;;;;;;;;;9.50;8.25;24.40;99.90;;;;;;4987125;28;8896;-71
2022/10/11 03:30:52;;;;;;;;;10.00;10.00;24.30;99.90;;;;;;5016926;28;8855;-72
2022/10/11 03:33:24;;;;;;;;;9.00;9.00;24.30;99.90;;;;;;5018771;28;8823;-71
2022/10/11 03:35:57;;;;;;;;;12.25;11.75;24.30;99.90;;;;;;5018741;28;8815;-71
2022/10/11 03:38:31;;;;;;;;;12.00;12.00;24.30;99.90;;;;;;5007196;28;8815;-71
2022/10/11 03:41:04;;;;;;;;;11.00;11.00;24.20;99.90;;;;;;5004283;28;8829;-72
2022/10/11 03:44:03;;;;;;;;;9.25;9.25;24.30;99.90;;;;;;5022480;28;9775;-71
2022/10/11 03:46:34;;;;;;;;;10.25;10.25;24.20;99.90;;;;;;5022459;28;8836;-71
2022/10/11 03:49:08;;;;;;;;;9.00;9.00;24.10;99.90;;;;;;5021629;28;8859;-71
2022/10/11 03:51:43;;;;;;;;;9.50;9.50;24.10;99.90;;;;;;5003810;28;8859;-71
2022/10/11 03:54:32;;;;;;;;;10.50;10.50;24.00;99.90;;;;;;5020410;28;8828;-70
2022/10/11 03:57:03;;;;;;;;;10.00;10.00;24.00;99.90;;;;;;5017857;28;8869;-72
2022/10/11 03:59:38;;;;;;;;;10.00;10.00;23.90;99.90;;;;;;5003333;28;8843;-72
2022/10/11 04:02:12;;;;;;;;;10.00;10.00;24.00;99.90;;;;;;5016334;28;8827;-72
2022/10/11 04:04:43;;;;;;;;;8.75;8.25;24.00;99.90;;;;;;5000368;28;8845;-72
2022/10/11 04:07:20;;;;;;;;;9.75;9.75;23.80;99.90;;;;;;4997498;28;8834;-72
2022/10/11 04:09:52;;;;;;;;;9.25;9.25;23.90;99.90;;;;;;5000621;28;8826;-71
2022/10/11 04:12:24;;;;;;;;;10.50;9.50;23.80;99.90;;;;;;5005568;28;8853;-71
2022/10/11 04:15:00;;;;;;;;;9.25;9.25;23.80;99.90;;;;;;5004566;28;8877;-72
2022/10/11 04:17:32;;;;;;;;;9.00;9.00;23.80;99.90;;;;;;5017771;28;8824;-72
2022/10/11 04:20:07;;;;;;;;;7.75;7.75;23.80;99.90;;;;;;5018871;28;8830;-70
2022/10/11 04:22:39;;;;;;;;;7.00;7.00;23.90;99.90;;;;;;5000656;28;8853;-71
2022/10/11 04:25:11;;;;;;;;;7.25;7.25;23.70;99.90;;;;;;5016790;28;8850;-71
2022/10/11 04:27:43;;;;;;;;;0.00;0.00;23.80;99.90;;;;;;4999844;28;8866;-71
2022/10/11 04:30:15;;;;;;;;;6.75;6.75;23.90;99.90;;;;;;5019815;28;8852;-70
2022/10/11 04:32:48;;;;;;;;;8.00;8.00;23.80;99.90;;;;;;4996051;28;8838;-71
2022/10/11 04:35:19;;;;;;;;;5.00;5.00;24.00;99.90;;;;;;5018298;28;8804;-70
2022/10/11 04:37:50;;;;;;;;;8.00;8.00;23.80;99.90;;;;;;5014146;28;8908;-72
2022/10/11 04:40:24;;;;;;;;;6.75;6.75;23.70;99.90;;;;;;5001580;28;8909;-71
2022/10/11 04:42:59;;;;;;;;;7.75;7.75;23.70;99.90;;;;;;5018136;28;9187;-72
2022/10/11 04:45:34;;;;;;;;;4.00;4.00;23.70;99.90;;;;;;5016379;28;8818;-73
2022/10/11 04:48:13;;;;;;;;;7.50;7.50;23.60;99.90;;;;;;5016471;28;8857;-73
2022/10/11 04:50:48;;;;;;;;;5.00;5.00;23.70;99.90;;;;;;4969022;28;8825;-71
2022/10/11 04:53:21;;;;;;;;;6.75;5.50;23.60;99.90;;;;;;4978727;28;8821;-71
2022/10/11 04:56:06;;;;;;;;;6.00;6.00;23.60;99.90;;;;;;5000780;28;8896;-72
2022/10/11 04:58:46;;;;;;;;;7.00;7.00;23.60;99.90;;;;;;4981088;28;8846;-71
2022/10/11 05:01:18;;;;;;;;;6.25;6.25;23.60;99.90;;;;;;5001226;28;9587;-73
2022/10/11 05:03:55;;;;;;;;;7.50;7.50;23.60;99.90;;;;;;4998177;28;8830;-71
2022/10/11 05:06:30;;;;;;;;;8.00;7.50;23.60;99.90;;;;;;5001580;28;9876;-71
2022/10/11 05:09:16;;;;;;;;;5.25;5.25;23.50;99.90;;;;;;5001108;28;8839;-71
2022/10/11 05:11:49;;;;;;;;;5.25;5.25;23.40;99.90;;;;;;4998705;28;8866;-72
2022/10/11 05:14:25;;;;;;;;;6.00;6.00;23.40;99.90;;;;;;4981642;28;8810;-71
2022/10/11 05:16:54;;;;;;;;;5.75;5.75;23.30;99.90;;;;;;5001787;28;8833;-72
2022/10/11 05:19:25;;;;;;;;;4.00;3.75;23.30;99.90;;;;;;4980258;28;8831;-72
2022/10/11 05:21:58;;;;;;;;;6.75;6.75;23.30;99.90;;;;;;4994199;28;8837;-72
2022/10/11 05:24:28;;;;;;;;;6.25;6.00;23.30;99.90;;;;;;4996932;28;8902;-72
2022/10/11 05:27:06;;;;;;;;;6.50;6.50;23.40;99.90;;;;;;4978745;28;8861;-71
2022/10/11 05:29:39;;;;;;;;;6.50;6.25;23.30;99.90;;;;;;4978348;28;8850;-73
2022/10/11 05:32:12;;;;;;;;;5.75;5.75;23.30;99.90;;;;;;5011056;28;8838;-72
2022/10/11 05:34:43;;;;;;;;;6.00;6.00;23.30;99.90;;;;;;4984065;28;8880;-71
2022/10/11 05:37:16;;;;;;;;;4.25;4.25;23.20;99.90;;;;;;4978046;28;8830;-72
2022/10/11 05:39:47;;;;;;;;;5.25;5.25;23.10;99.90;;;;;;4980001;28;8902;-72
2022/10/11 05:42:20;;;;;;;;;4.75;4.75;23.10;99.90;;;;;;4971285;28;8892;-72
2022/10/11 05:44:51;;;;;;;;;5.00;5.00;23.10;99.90;;;;;;4980888;28;8875;-71
2022/10/11 05:47:25;;;;;;;;;6.00;6.00;23.20;99.90;;;;;;4983044;28;8836;-72
2022/10/11 05:49:57;;;;;;;;;5.75;5.75;23.00;99.90;;;;;;5013300;28;8854;-72
2022/10/11 05:52:27;;;;;;;;;6.75;6.75;23.00;99.90;;;;;;5001534;28;8826;-71
2022/10/11 05:54:57;;;;;;;;;6.25;6.25;23.10;99.90;;;;;;5004010;28;8830;-70
2022/10/11 05:57:31;;;;;;;;;6.25;6.25;23.10;99.90;;;;;;5002837;28;8854;-72
2022/10/11 06:00:06;;;;;;;;;6.00;6.00;22.90;99.90;;;;;;5013039;28;8838;-72
2022/10/11 06:02:39;;;;;;;;;4.50;4.50;23.00;99.90;;;;;;5003571;28;8783;-72
2022/10/11 06:05:13;;;;;;;;;5.50;5.50;23.00;99.90;;;;;;5000148;28;8855;-72
2022/10/11 06:07:44;;;;;;;;;5.50;5.50;23.00;99.90;;;;;;5011729;28;8847;-70
2022/10/11 06:10:23;;;;;;;;;6.50;6.50;22.90;99.90;;;;;;4999174;28;8873;-72
2022/10/11 06:12:54;;;;;;;;;6.00;6.00;22.90;99.90;;;;;;4990451;28;8868;-71
2022/10/11 06:15:27;;;;;;;;;6.75;6.75;22.90;99.90;;;;;;5011740;28;8965;-71
2022/10/11 06:17:58;;;;;;;;;7.00;7.00;22.90;99.90;;;;;;5016572;28;8888;-71
2022/10/11 06:20:28;;;;;;;;;5.00;5.00;22.80;99.90;;;;;;5006053;28;8881;-71
2022/10/11 06:23:00;;;;;;;;;5.75;5.75;22.90;99.90;;;;;;5015307;28;8841;-71
2022/10/11 06:25:31;;;;;;;;;5.75;5.75;22.80;99.90;;;;;;5003795;28;8832;-69
2022/10/11 06:28:10;;;;;;;;;5.25;5.25;22.70;99.90;;;;;;5014408;28;8858;-71
2022/10/11 06:30:41;;;;;;;;;6.00;6.00;22.70;99.90;;;;;;5003695;28;8846;-71
2022/10/11 06:33:12;;;;;;;;;3.00;3.00;22.70;99.90;;;;;;5027374;28;8889;-70
2022/10/11 06:35:48;;;;;;;;;3.25;3.25;22.50;99.90;;;;;;5000937;28;8861;-71
2022/10/11 06:38:24;;;;;;;;;6.00;5.75;22.60;99.90;;;;;;4996375;28;8870;-71
2022/10/11 06:40:54;;;;;;;;;6.50;6.50;22.50;99.90;;;;;;5004368;28;8841;-72
2022/10/11 06:43:26;;;;;;;;;4.25;4.25;22.40;99.90;;;;;;4998962;28;8902;-73
2022/10/11 06:46:02;;;;;;;;;5.50;5.00;22.40;99.90;;;;;;5009680;28;9081;-71
2022/10/11 06:48:42;;;;;;;;;5.75;5.75;22.50;99.90;;;;;;4996178;28;9950;-71
2022/10/11 06:51:17;;;;;;;;;5.75;5.75;22.30;99.90;;;;;;4979994;28;8884;-72
2022/10/11 06:53:51;;;;;;;;;6.00;4.75;22.40;99.90;;;;;;4993157;28;8838;-72
2022/10/11 06:56:30;;;;;;;;;5.00;5.00;22.40;99.90;;;;;;5001654;28;8884;-72
2022/10/11 06:59:03;;;;;;;;;6.00;6.00;22.40;99.90;;;;;;4997062;28;8834;-71
2022/10/11 07:01:37;;;;;;;;;4.75;4.75;22.40;99.90;;;;;;4992042;28;8880;-71
2022/10/11 07:04:09;;;;;;;;;6.00;6.00;22.20;99.90;;;;;;4999766;28;8812;-72
2022/10/11 07:06:41;;;;;;;;;5.00;5.00;22.30;99.90;;;;;;4998708;28;8842;-72
2022/10/11 07:09:11;;;;;;;;;4.25;4.25;22.20;99.90;;;;;;5012255;28;8818;-72
2022/10/11 07:11:47;;;;;;;;;5.00;5.00;22.20;99.90;;;;;;5001827;28;8851;-72
2022/10/11 07:14:21;;;;;;;;;5.50;5.50;22.10;99.90;;;;;;5002580;28;8837;-71
2022/10/11 07:16:52;;;;;;;;;5.00;5.00;22.20;99.90;;;;;;5005142;28;8832;-71
2022/10/11 07:19:27;;;;;;;;;6.25;6.25;22.20;99.90;;;;;;4998525;28;8861;-72
2022/10/11 07:21:57;;;;;;;;;5.00;5.00;22.20;99.90;;;;;;5017757;28;8845;-71
2022/10/11 07:24:28;;;;;;;;;5.00;5.00;22.20;99.90;;;;;;5003679;28;8834;-72
2022/10/11 07:27:03;;;;;;;;;6.00;6.00;22.10;99.90;;;;;;4982568;28;8887;-71
2022/10/11 07:29:45;;;;;;;;;4.00;4.00;22.00;99.90;;;;;;5015778;28;8853;-71
2022/10/11 07:32:16;;;;;;;;;5.00;5.00;22.10;99.90;;;;;;5001931;28;9572;-71
2022/10/11 07:34:51;;;;;;;;;5.75;5.75;22.00;99.90;;;;;;5004653;28;8861;-71
2022/10/11 07:37:21;;;;;;;;;4.00;4.00;21.90;99.90;;;;;;5005550;28;8835;-71
2022/10/11 07:39:51;;;;;;;;;4.00;4.00;21.90;99.90;;;;;;5015813;28;9583;-72
2022/10/11 07:42:23;;;;;;;;;4.00;4.00;21.80;99.90;;;;;;4999724;28;8838;-71
2022/10/11 07:44:54;;;;;;;;;5.00;5.00;21.90;99.90;;;;;;5014182;28;8838;-71
2022/10/11 07:47:25;;;;;;;;;4.00;4.00;21.90;99.90;;;;;;4985947;28;8859;-72
2022/10/11 07:49:57;;;;;;;;;7.50;6.00;21.90;99.90;;;;;;5020751;28;8927;-70
2022/10/11 07:52:29;;;;;;;;;6.00;4.00;21.90;99.90;;;;;;4997980;28;8877;-71
2022/10/11 07:55:04;;;;;;;;;5.25;5.25;21.90;99.90;;;;;;5015076;28;8861;-71
2022/10/11 07:57:43;;;;;;;;;6.00;6.00;21.90;99.90;;;;;;5017078;28;8822;-71
2022/10/11 08:00:16;;;;;;;;;3.67;3.67;22.00;99.90;;;;;;5009767;28;8803;-71
2022/10/11 08:02:50;;;;;;;;;4.25;4.25;21.80;99.90;;;;;;4998330;28;8855;-71
2022/10/11 08:05:21;;;;;;;;;4.75;4.75;21.80;99.90;;;;;;4979060;28;9426;-72
2022/10/11 08:07:53;;;;;;;;;4.25;4.25;21.80;99.90;;;;;;5000077;28;8818;-70
2022/10/11 08:10:27;;;;;;;;;4.25;4.25;21.70;99.90;;;;;;4999485;28;8834;-71
2022/10/11 08:13:01;;;;;;;;;3.75;3.75;21.60;99.90;;;;;;5013695;28;8838;-70
2022/10/11 08:15:33;;;;;;;;;5.00;5.00;21.70;99.90;;;;;;4995054;28;8866;-69
2022/10/11 08:18:04;;;;;;;;;4.00;4.00;21.70;99.90;;;;;;5004816;28;9979;-71
2022/10/11 08:20:34;;;;;;;;;5.00;5.00;21.60;99.90;;;;;;5001371;28;8922;-72
2022/10/11 08:23:10;;;;;;;;;4.25;4.25;21.60;99.90;;;;;;4976376;28;8883;-71
2022/10/11 08:25:46;;;;;;;;;5.00;4.00;21.60;99.90;;;;;;5004290;28;8806;-72
2022/10/11 08:28:19;;;;;;;;;5.25;5.25;21.70;99.90;;;;;;5020834;28;8831;-72
2022/10/11 08:30:53;;;;;;;;;6.00;6.00;21.50;99.90;;;;;;5020346;28;8872;-72
2022/10/11 08:33:25;;;;;;;;;5.75;5.75;21.50;99.90;;;;;;4977744;28;8860;-71
2022/10/11 08:35:59;;;;;;;;;7.00;6.00;21.40;99.90;;;;;;5002303;28;8822;-71
2022/10/11 08:38:32;;;;;;;;;3.00;3.00;21.50;99.90;;;;;;5001403;28;8840;-70
2022/10/11 08:41:18;;;;;;;;;5.00;5.00;21.40;99.90;;;;;;5016405;28;8815;-72
2022/10/11 08:44:16;;;;;;;;;4.25;4.25;21.50;99.90;;;;;;4997917;28;8850;-72
2022/10/11 08:47:00;;;;;;;;;6.00;5.00;21.40;99.90;;;;;;5023833;28;9586;-71
2022/10/11 08:49:34;;;;;;;;;4.75;4.75;21.50;99.90;;;;;;4995205;28;8865;-73
2022/10/11 08:52:23;;;;;;;;;4.50;4.50;21.30;99.90;;;;;;4964215;28;8880;-75
2022/10/11 08:55:17;;;;;;;;;4.50;4.50;21.30;99.90;;;;;;5007067;28;8882;-71
2022/10/11 08:57:54;;;;;;;;;5.75;5.75;21.30;99.90;;;;;;4983779;28;8880;-71
2022/10/11 09:00:30;;;;;;;;;5.50;4.00;21.20;99.90;;;;;;4991582;28;8830;-71
2022/10/11 09:03:26;;;;;;;;;4.75;4.75;21.10;99.90;;;;;;4981793;28;8868;-72
2022/10/11 09:06:25;;;;;;;;;4.00;4.00;21.10;99.90;;;;;;5009720;28;8852;-72
2022/10/11 09:09:10;;;;;;;;;3.50;3.50;21.00;99.90;;;;;;4997398;28;8822;-72
2022/10/11 09:12:10;;;;;;;;;5.00;5.00;21.10;99.90;;;;;;4998078;28;8888;-73
2022/10/11 09:15:10;;;;;;;;;4.00;4.00;21.10;99.90;;;;;;4997501;28;8847;-72
2022/10/11 09:18:27;;;;;;;;;5.00;5.00;21.00;99.90;;;;;;4981172;28;8847;-72
2022/10/11 09:21:23;;;;;;;;;4.00;4.00;21.00;99.90;;;;;;4967687;28;9001;-72
2022/10/11 09:24:20;;;;;;;;;4.00;4.00;20.90;99.90;;;;;;4992710;28;8818;-71
2022/10/11 09:27:13;;;;;;;;;4.50;4.00;20.90;99.90;;;;;;4978217;28;8823;-72
2022/10/11 09:30:13;;;;;;;;;4.00;4.00;20.90;99.90;;;;;;4966393;28;8844;-71
2022/10/11 09:33:21;;;;;;;;;3.00;3.00;21.10;99.90;;;;;;5000887;28;8832;-73
2022/10/11 09:35:57;;;;;;;;;5.00;5.00;21.10;99.90;;;;;;4977211;28;8822;-71
2022/10/11 09:39:21;;;;;;;;;4.25;4.25;21.00;99.90;;;;;;4983951;28;8837;-70
2022/10/11 09:42:07;;;;;;;;;5.00;3.50;20.90;99.90;;;;;;4896469;29;8836;-71
2022/10/11 09:44:47;;;;;;;;;6.75;4.75;20.80;99.90;;;;;;4994410;28;8818;-72
2022/10/11 09:47:31;;;;;;;;;3.00;3.00;20.80;99.90;;;;;;4982451;28;8846;-70
2022/10/11 09:50:28;;;;;;;;;2.50;2.50;20.80;99.90;;;;;;4969917;28;8848;-72
2022/10/11 09:53:07;;;;;;;;;4.25;4.25;20.70;99.90;;;;;;5025088;28;8890;-71
2022/10/11 09:56:01;;;;;;;;;4.50;4.50;20.70;99.90;;;;;;5017156;28;8824;-72
2022/10/11 09:58:39;;;;;;;;;5.00;5.00;20.70;99.90;;;;;;4993335;28;8800;-72
2022/10/11 10:01:11;;;;;;;;;4.25;4.25;20.70;99.90;;;;;;4995032;28;8820;-73
2022/10/11 10:03:44;;;;;;;;;3.00;3.00;20.70;99.90;;;;;;5016879;28;8798;-71
2022/10/11 10:06:27;;;;;;;;;4.50;4.50;20.60;99.90;;;;;;4990388;28;8872;-71
2022/10/11 10:09:26;;;;;;;;;4.50;4.50;20.50;99.90;;;;;;4994678;28;8857;-70
2022/10/11 10:11:57;;;;;;;;;3.75;3.75;20.50;99.90;;;;;;5008469;28;8844;-70
2022/10/11 10:14:30;;;;;;;;;5.00;5.00;20.50;99.90;;;;;;5012346;28;8828;-71
2022/10/11 10:17:19;;;;;;;;;4.00;4.00;20.50;99.90;;;;;;5013089;28;9006;-72
2022/10/11 10:19:52;;;;;;;;;4.00;4.00;20.60;99.90;;;;;;5014657;28;8853;-71
2022/10/11 10:22:30;;;;;;;;;3.25;3.25;20.60;99.90;;;;;;4990869;28;8831;-72
2022/10/11 10:25:31;;;;;;;;;5.00;5.00;20.60;99.90;;;;;;5011526;28;8842;-73
2022/10/11 10:28:25;;;;;;;;;2.50;2.50;20.50;99.90;;;;;;5004108;28;8854;-72
2022/10/11 10:30:58;;;;;;;;;5.00;5.00;20.50;99.90;;;;;;5015054;28;8844;-72
2022/10/11 10:33:35;;;;;;;;;4.00;4.00;20.60;99.90;;;;;;4993185;28;8856;-71
2022/10/11 10:36:19;;;;;;;;;4.75;4.75;20.50;99.90;;;;;;5016558;28;8834;-72
2022/10/11 10:39:04;;;;;;;;;3.50;3.50;20.50;99.90;;;;;;4997748;28;8830;-71
2022/10/11 10:41:35;;;;;;;;;4.75;4.25;20.50;99.90;;;;;;5016491;28;8836;-70
2022/10/11 10:44:12;;;;;;;;;4.25;4.25;20.50;99.90;;;;;;5014724;28;8941;-72
2022/10/11 10:47:01;;;;;;;;;4.00;4.00;20.40;99.90;;;;;;5006050;28;9905;-71
2022/10/11 10:49:44;;;;;;;;;4.00;4.00;20.40;99.90;;;;;;4997138;28;8850;-72
2022/10/11 10:52:46;;;;;;;;;4.00;4.00;20.40;99.90;;;;;;5003645;28;8865;-71
2022/10/11 10:55:40;;;;;;;;;4.75;4.75;20.40;99.90;;;;;;4996375;28;8850;-70
2022/10/11 10:58:36;;;;;;;;;3.00;3.00;20.40;99.90;;;;;;4948013;28;8831;-71
2022/10/11 11:01:28;;;;;;;;;4.25;4.25;20.30;99.90;;;;;;5013064;28;8838;-71
2022/10/11 11:04:38;;;;;;;;;5.00;5.00;20.40;99.90;;;;;;5026120;28;8818;-73
2022/10/11 11:07:49;;;;;;;;;5.25;3.25;20.30;99.90;;;;;;4960958;28;8872;-72
2022/10/11 11:10:34;;;;;;;;;5.00;5.00;20.20;99.90;;;;;;5002180;28;8854;-71
2022/10/11 11:13:15;;;;;;;;;4.00;4.00;20.30;99.90;;;;;;4988286;28;8953;-71
2022/10/11 11:16:07;;;;;;;;;3.50;3.00;20.30;99.90;;;;;;5003042;28;8842;-71
2022/10/11 11:18:46;;;;;;;;;4.25;4.25;20.20;99.90;;;;;;5033130;28;8834;-70
2022/10/11 11:21:44;;;;;;;;;4.25;3.50;20.30;99.90;;;;;;5007300;28;8846;-71
2022/10/11 11:25:05;;;;;;;;;4.00;4.00;20.20;99.90;;;;;;5016151;28;8836;-70
2022/10/11 11:28:17;;;;;;;;;4.25;4.25;20.00;99.90;;;;;;4965656;28;8826;-70
2022/10/11 11:31:13;;;;;;;;;4.00;4.00;19.90;99.90;;;;;;5000109;28;9604;-70
2022/10/11 11:34:03;;;;;;;;;4.00;4.00;20.10;99.90;;;;;;5018253;28;8877;-73
2022/10/11 11:36:58;;;;;;;;;3.25;3.25;20.00;99.90;;;;;;4985468;28;8860;-70
2022/10/11 11:39:52;;;;;;;;;4.50;4.50;19.70;99.90;;;;;;5029362;28;8838;-69
2022/10/11 11:42:50;;;;;;;;;3.00;3.00;19.70;99.90;;;;;;5025986;28;9538;-69
2022/10/11 11:45:32;;;;;;;;;4.25;4.25;19.60;99.90;;;;;;4995620;28;8873;-70
2022/10/11 11:48:13;;;;;;;;;3.25;3.25;19.50;99.90;;;;;;4994750;28;8898;-69
2022/10/11 11:51:02;;;;;;;;;5.00;5.00;19.60;99.90;;;;;;4988560;28;8858;-69
2022/10/11 11:54:12;;;;;;;;;3.25;3.25;19.50;99.90;;;;;;4979378;28;8839;-68
2022/10/11 11:57:02;;;;;;;;;4.00;4.00;19.40;99.90;;;;;;4979690;28;8833;-69
2022/10/11 12:00:10;;;;;;;;;4.25;4.25;19.50;99.90;;;;;;4991901;28;8851;-71
2022/10/11 12:02:58;;;;;;;;;4.50;4.50;19.50;99.90;;;;;;4972395;28;8894;-71
2022/10/11 12:05:34;;;;;;;;;4.00;4.00;19.30;99.90;;;;;;5011514;28;8876;-71
2022/10/11 12:08:26;;;;;;;;;3.50;3.50;19.30;99.90;;;;;;4997190;28;8856;-71
2022/10/11 12:11:02;;;;;;;;;2.00;2.00;19.30;99.90;;;;;;4990011;28;8854;-71
2022/10/11 12:13:47;;;;;;;;;4.00;4.00;19.30;99.90;;;;;;4996783;28;8860;-72
2022/10/11 12:16:22;;;;;;;;;4.75;4.75;19.50;99.90;;;;;;4977295;28;8847;-70
2022/10/11 12:19:14;;;;;;;;;5.00;5.00;19.40;99.90;;;;;;5005041;28;8871;-71
2022/10/11 12:21:45;;;;;;;;;2.25;2.00;19.40;99.90;;;;;;4999222;28;8825;-74
2022/10/11 12:24:20;;;;;;;;;4.00;4.00;19.40;99.90;;;;;;4950922;28;8850;-74
2022/10/11 12:26:55;;;;;;;;;4.75;4.75;19.30;99.90;;;;;;4978823;28;8837;-74
2022/10/11 12:29:47;;;;;;;;;3.00;3.00;19.50;99.90;;;;;;4994457;28;9662;-70
2022/10/11 12:32:40;;;;;;;;;2.00;2.00;19.40;99.90;;;;;;5001144;28;8829;-70
2022/10/11 12:35:34;;;;;;;;;5.00;5.00;19.10;99.90;;;;;;4999903;28;9572;-70
2022/10/11 12:38:17;;;;;;;;;3.75;3.75;19.30;99.90;;;;;;4985996;28;8842;-70
2022/10/11 12:40:56;;;;;;;;;3.00;3.00;19.20;99.90;;;;;;4999701;28;8848;-74
2022/10/11 12:43:54;;;;;;;;;3.75;3.75;19.30;99.90;;;;;;4973076;28;8875;-74
2022/10/11 12:46:33;;;;;;;;;3.75;3.75;19.30;99.90;;;;;;4959168;28;9322;-70
2022/10/11 12:49:22;;;;;;;;;2.25;2.25;19.20;99.90;;;;;;4980587;28;8875;-70
2022/10/11 12:52:15;;;;;;;;;4.00;4.00;19.30;99.90;;;;;;4999070;28;8815;-73
2022/10/11 12:55:07;;;;;;;;;3.00;3.00;19.40;99.90;;;;;;4993376;28;8866;-73
2022/10/11 12:57:57;;;;;;;;;5.50;4.00;19.50;99.90;;;;;;4996999;28;8822;-74
2022/10/11 13:00:56;;;;;;;;;6.00;6.00;19.50;99.90;;;;;;4996640;28;8885;-70
2022/10/11 13:03:51;;;;;;;;;3.50;3.50;19.60;99.90;;;;;;4997517;28;8892;-70
2022/10/11 13:06:28;;;;;;;;;6.00;6.00;19.50;99.90;;;;;;5008770;28;8888;-70
2022/10/11 13:09:06;;;;;;;;;4.75;4.00;19.60;99.90;;;;;;5009427;28;8842;-71
2022/10/11 13:11:56;;;;;;;;;4.25;4.00;19.60;99.90;;;;;;4983427;28;8865;-71
2022/10/11 13:14:41;;;;;;;;;4.00;4.00;19.60;99.90;;;;;;4978173;28;8850;-71
2022/10/11 13:17:31;;;;;;;;;3.33;3.33;19.60;99.90;;;;;;4966202;28;8862;-72
2022/10/11 13:20:12;;;;;;;;;6.50;6.00;19.90;99.90;;;;;;5001068;28;8907;-71
2022/10/11 13:22:46;;;;;;;;;3.75;3.75;19.90;99.90;;;;;;5009436;28;8849;-71
2022/10/11 13:25:28;;;;;;;;;3.25;3.25;20.00;99.90;;;;;;4993967;28;8826;-69
2022/10/11 13:27:59;;;;;;;;;3.75;3.75;20.00;99.90;;;;;;4999762;28;8814;-70
2022/10/11 13:30:42;;;;;;;;;3.50;3.50;20.10;99.90;;;;;;5002076;28;8855;-69
2022/10/11 13:33:25;;;;;;;;;1.25;1.25;20.20;99.90;;;;;;4991483;28;8849;-68
2022/10/11 13:35:55;;;;;;;;;4.25;3.00;20.30;99.90;;;;;;4979263;28;8857;-71
2022/10/11 13:38:37;;;;;;;;;5.00;5.00;20.40;99.90;;;;;;4998081;28;8877;-73
2022/10/11 13:41:09;;;;;;;;;4.00;4.00;20.40;99.90;;;;;;4961584;28;8821;-69
2022/10/11 13:43:42;;;;;;;;;5.25;5.25;20.60;99.90;;;;;;4979656;28;8830;-69
2022/10/11 13:46:25;;;;;;;;;6.00;6.00;20.60;99.90;;;;;;4994818;28;8826;-72
2022/10/11 13:49:37;;;;;;;;;3.25;3.25;20.70;99.90;;;;;;5002275;28;8982;-72
2022/10/11 13:52:23;;;;;;;;;4.00;4.00;20.80;99.90;;;;;;4948514;28;8849;-72
2022/10/11 13:55:07;;;;;;;;;5.00;5.00;20.80;99.90;;;;;;4982776;28;8871;-73
2022/10/11 13:57:48;;;;;;;;;4.25;4.25;20.80;99.90;;;;;;5014230;28;8819;-74
2022/10/11 14:00:36;;;;;;;;;3.50;3.50;20.90;99.90;;;;;;5002766;28;8830;-71
2022/10/11 14:03:20;;;;;;;;;4.00;4.00;20.80;99.90;;;;;;4987598;28;8834;-72
2022/10/11 14:05:58;;;;;;;;;3.25;3.00;20.90;99.90;;;;;;4980664;28;8790;-74